Last 30 Days

Alpine-Roundhouse Top 7880'

Daily Data | America/Los_Angeles
as of 10/27/20 6:52 PM PDT
Date Daily Max Temp (°F) Daily Min Temp (°F) Wind Spd (mph) Daily Max Wind (mph) Max RH (%) Min RH (%) Wet Bulb (°F) Bat Volt Min Day (V)
10/26/20 35.1 17.3 6.7 27.8 69 17 20.1 12.8
10/25/20 41.5 19.0 5.3 37.4 68 29 27.4 12.9
10/24/20 54.6 39.4 3.5 18.4 60 27 36.2 13.0
10/23/20 57.8 35.6 3.8 21.4 75 26 38.2 13.1
10/22/20 55.0 36.6 1.9 12.8 68 27 36.6 13.0
10/21/20 63.3 50.1 3.8 16.5 41 21 40.5 13.0
10/20/20 65.3 47.6 2.9 17.8 43 15 40.8 13.0
10/19/20 65.4 49.6 4.9 18.0 41 22 41.6 13.0
10/18/20 63.8 50.8 5.3 20.7 46 14 41.9 13.0
10/17/20 69.4 50.6 2.6 17.0 31 13 41.6 12.9
10/16/20 65.6 44.3 5.6 18.7 48 21 39.7 13.0
10/15/20 59.1 46.8 4.1 18.5 48 34 41.5 13.0
10/14/20 70.2 50.2 1.3 10.2 46 23 44.1 13.0
10/13/20 67.0 50.4 2.8 16.7 50 24 42.3 13.0
10/12/20 63.3 47.7 4.5 17.3 52 21 40.9 12.9
10/11/20 60.8 39.1 4.6 22.8 94 28 41.4 13.0
10/10/20 49.8 39.7 4.1 23.7 94 34 38.5 13.1
10/9/20 63.4 45.5 5.5 21.1 51 20 38.7 13.0
10/8/20 61.0 49.8 4.0 18.4 33 15 38.4 13.0
10/7/20 67.0 51.8 6.4 19.9 31 11 40.6 13.0
10/6/20 69.0 52.8 3.8 18.5 31 12 41.7 12.9
10/5/20 69.1 54.2 5.5 18.7 31 13 41.4 13.0
10/4/20 68.0 54.4 4.1 18.5 29 16 42.1 12.9
10/3/20 70.1 57.9 4.3 17.1 36 13 43.3 12.9
10/2/20 71.9 58.0 2.8 12.5 29 11 43.9 12.9
10/1/20 70.9 56.4 2.3 15.7 32 14 44.4 12.8
9/30/20 69.2 54.0 1.6 15.8 40 23 45.7 12.9
9/29/20 70.8 51.0 3.3 18.5 37 23 44.3 12.9
9/28/20 60.3 45.4 5.6 24.2 50 25 40.2 13.0
9/27/20 57.5 47.1 4.9 21.6 66 35 43.0 13.0
Max 71.9 58.0 6.7 37.4 94 35 45.7 13.1
Avg - - 4.1 - - - 40.0 -
Min 35.1 17.3 1.3 10.2 29 11 20.1 12.8